createdAt,value
2022-12-25T00:00:48.425Z,7.62
2022-12-25T00:03:14.996Z,7.63
2022-12-25T00:05:41.421Z,7.64
2022-12-25T00:08:07.776Z,7.63
2022-12-25T00:10:44.548Z,7.29
2022-12-25T00:13:11.689Z,7.49
2022-12-25T00:15:40.985Z,7.45
2022-12-25T00:18:07.492Z,7.28
2022-12-25T00:20:34.418Z,7.21
2022-12-25T00:23:00.929Z,7.30
2022-12-25T00:25:27.534Z,7.27
2022-12-25T00:27:54.101Z,7.33
2022-12-25T00:30:20.709Z,7.24
2022-12-25T00:32:47.296Z,7.02
2022-12-25T00:35:14.811Z,7.00
2022-12-25T00:37:41.363Z,7.03
2022-12-25T00:40:08.418Z,7.05
2022-12-25T00:42:35.041Z,7.05
2022-12-25T00:45:01.673Z,7.13
2022-12-25T00:47:28.257Z,7.16
2022-12-25T00:49:55.372Z,7.12
2022-12-25T00:52:21.907Z,7.08
2022-12-25T00:54:48.411Z,7.03
2022-12-25T00:57:15.164Z,7.01
2022-12-25T00:59:41.539Z,7.05
2022-12-25T01:02:23.482Z,7.01
2022-12-25T01:04:52.606Z,6.89
2022-12-25T01:07:19.912Z,6.83
2022-12-25T01:10:05.589Z,6.77
2022-12-25T01:12:34.087Z,6.74
2022-12-25T01:15:01.047Z,6.71
2022-12-25T01:17:27.548Z,6.62
2022-12-25T01:19:54.059Z,6.54
2022-12-25T01:22:20.389Z,6.37
2022-12-25T01:24:47.083Z,6.34
2022-12-25T01:27:13.757Z,6.30
2022-12-25T01:29:40.399Z,6.21
2022-12-25T01:32:07.215Z,6.23
2022-12-25T01:34:34.408Z,6.11
2022-12-25T01:37:01.063Z,6.03
2022-12-25T01:39:27.562Z,6.05
2022-12-25T01:41:54.035Z,5.99
2022-12-25T01:44:35.637Z,5.99
2022-12-25T01:47:06.986Z,6.00
2022-12-25T01:49:38.948Z,5.98
2022-12-25T01:52:11.254Z,6.02
2022-12-25T01:54:50.616Z,6.03
2022-12-25T01:57:22.424Z,6.12
2022-12-25T01:59:49.976Z,6.14
2022-12-25T02:02:16.683Z,6.05
2022-12-25T02:04:52.121Z,6.18
2022-12-25T02:07:22.888Z,6.12
2022-12-25T02:09:50.169Z,6.02
2022-12-25T02:12:28.313Z,6.16
2022-12-25T02:15:05.001Z,6.23
2022-12-25T02:18:19.736Z,6.25
2022-12-25T02:20:59.799Z,6.25
2022-12-25T02:23:37.944Z,6.21
2022-12-25T02:26:17.456Z,6.14
2022-12-25T02:29:02.758Z,6.06
2022-12-25T02:31:43.077Z,6.21
2022-12-25T02:34:41.893Z,6.12
2022-12-25T02:37:19.467Z,6.03
2022-12-25T02:40:18.427Z,6.17
2022-12-25T02:43:23.727Z,6.24
2022-12-25T02:46:21.404Z,6.27
2022-12-25T02:49:16.679Z,6.12
2022-12-25T02:52:05.588Z,6.24
2022-12-25T02:55:00.329Z,6.21
2022-12-25T02:57:50.750Z,6.23
2022-12-25T03:00:35.870Z,6.19
2022-12-25T03:03:24.273Z,6.26
2022-12-25T03:06:15.232Z,6.28
2022-12-25T03:08:45.021Z,6.32
2022-12-25T03:11:31.140Z,6.34
2022-12-25T03:14:21.863Z,6.32
2022-12-25T03:16:53.047Z,6.26
2022-12-25T03:19:41.477Z,6.32
2022-12-25T03:22:30.841Z,6.38
2022-12-25T03:25:16.044Z,6.39
2022-12-25T03:27:44.291Z,6.36
2022-12-25T03:30:29.867Z,6.28
2022-12-25T03:33:36.782Z,6.22
2022-12-25T03:36:15.226Z,6.25
2022-12-25T03:39:16.353Z,6.29
2022-12-25T03:42:13.838Z,6.28
2022-12-25T03:45:17.527Z,6.25
2022-12-25T03:48:08.445Z,6.28
2022-12-25T03:50:59.287Z,6.24
2022-12-25T03:54:01.714Z,6.25
2022-12-25T03:56:49.298Z,6.21
2022-12-25T03:59:39.093Z,6.26
2022-12-25T04:02:24.653Z,6.26
2022-12-25T04:05:09.686Z,6.23
2022-12-25T04:07:54.927Z,6.19
2022-12-25T04:10:50.771Z,6.25
2022-12-25T04:13:35.555Z,6.29
2022-12-25T04:16:20.630Z,6.28
2022-12-25T04:19:05.561Z,6.34
2022-12-25T04:21:50.926Z,6.28
2022-12-25T04:24:36.086Z,6.34
2022-12-25T04:27:21.363Z,6.38
2022-12-25T04:30:06.543Z,6.47
2022-12-25T04:32:51.686Z,6.45
2022-12-25T04:35:36.836Z,6.45
2022-12-25T04:38:03.362Z,6.49
2022-12-25T04:40:29.914Z,6.53
2022-12-25T04:42:56.453Z,6.55
2022-12-25T04:45:23.171Z,6.55
2022-12-25T04:47:49.704Z,6.62
2022-12-25T04:50:16.303Z,6.63
2022-12-25T04:52:42.802Z,6.64
2022-12-25T04:55:10.498Z,6.54
2022-12-25T04:57:36.893Z,6.64
2022-12-25T05:00:05.638Z,6.70
2022-12-25T05:02:32.599Z,6.64
2022-12-25T05:04:59.076Z,6.71
2022-12-25T05:07:25.440Z,6.67
2022-12-25T05:09:51.922Z,6.68
2022-12-25T05:12:18.432Z,6.69
2022-12-25T05:14:44.919Z,6.72
2022-12-25T05:17:11.399Z,6.69
2022-12-25T05:19:37.732Z,6.70
2022-12-25T05:22:04.303Z,6.68
2022-12-25T05:24:30.962Z,6.71
2022-12-25T05:26:57.531Z,6.58
2022-12-25T05:29:24.024Z,6.70
2022-12-25T05:31:50.651Z,6.67
2022-12-25T05:34:17.227Z,6.70
2022-12-25T05:36:43.752Z,6.47
2022-12-25T05:39:10.124Z,6.43
2022-12-25T05:41:36.621Z,6.47
2022-12-25T05:44:05.966Z,6.59
2022-12-25T05:46:32.524Z,6.54
2022-12-25T05:48:59.087Z,6.64
2022-12-25T05:51:26.220Z,6.65
2022-12-25T05:53:52.721Z,6.66
2022-12-25T05:56:19.218Z,6.65
2022-12-25T05:58:45.553Z,6.67
2022-12-25T06:01:14.671Z,6.63
2022-12-25T06:03:41.326Z,6.61
2022-12-25T06:06:08.254Z,6.48
2022-12-25T06:08:35.202Z,6.50
2022-12-25T06:11:06.841Z,6.44
2022-12-25T06:13:34.643Z,6.40
2022-12-25T06:16:08.968Z,6.35
2022-12-25T06:18:41.127Z,6.30
2022-12-25T06:21:12.433Z,6.11
2022-12-25T06:23:39.839Z,6.07
2022-12-25T06:26:12.741Z,5.98
2022-12-25T06:28:39.267Z,5.92
2022-12-25T06:31:24.713Z,5.84
2022-12-25T06:33:51.579Z,5.73
2022-12-25T06:36:25.844Z,5.72
2022-12-25T06:38:53.581Z,5.56
2022-12-25T06:41:22.669Z,5.51
2022-12-25T06:43:54.508Z,5.38
2022-12-25T06:46:22.279Z,5.43
2022-12-25T06:48:49.979Z,5.39
2022-12-25T06:51:18.319Z,5.33
2022-12-25T06:53:45.081Z,5.28
2022-12-25T06:56:15.669Z,5.26
2022-12-25T06:58:51.122Z,5.26
2022-12-25T07:01:27.244Z,5.12
2022-12-25T07:03:57.403Z,5.20
2022-12-25T07:06:24.120Z,5.20
2022-12-25T07:08:50.615Z,5.07
2022-12-25T07:11:17.315Z,5.13
2022-12-25T07:13:43.991Z,5.09
2022-12-25T07:16:12.215Z,4.98
2022-12-25T07:18:39.005Z,5.00
2022-12-25T07:21:10.867Z,4.95
2022-12-25T07:23:37.457Z,4.95
2022-12-25T07:26:04.624Z,4.92
2022-12-25T07:28:31.729Z,4.83
2022-12-25T07:31:03.199Z,4.76
2022-12-25T07:33:29.810Z,4.84
2022-12-25T07:35:56.375Z,4.83
2022-12-25T07:38:22.743Z,4.83
2022-12-25T07:40:49.273Z,4.74
2022-12-25T07:43:15.978Z,4.78
2022-12-25T07:45:42.606Z,4.85
2022-12-25T07:48:15.296Z,4.83
2022-12-25T07:50:43.156Z,4.82
2022-12-25T07:53:09.643Z,4.93
2022-12-25T07:55:36.208Z,5.04
2022-12-25T07:58:02.642Z,5.11
2022-12-25T08:00:32.786Z,5.16
2022-12-25T08:03:00.163Z,5.24
2022-12-25T08:05:26.975Z,5.36
2022-12-25T08:07:57.767Z,5.51
2022-12-25T08:10:24.752Z,5.64
2022-12-25T08:12:52.140Z,5.68
2022-12-25T08:15:18.670Z,5.79
2022-12-25T08:17:45.059Z,5.70
2022-12-25T08:20:11.969Z,5.67
2022-12-25T08:22:38.449Z,5.72
2022-12-25T08:25:05.256Z,5.97
2022-12-25T08:27:32.027Z,5.99
2022-12-25T08:29:58.630Z,6.04
2022-12-25T08:32:25.338Z,6.14
2022-12-25T08:34:51.841Z,6.23
2022-12-25T08:37:18.425Z,6.20
2022-12-25T08:39:44.966Z,6.14
2022-12-25T08:42:11.493Z,6.21
2022-12-25T08:44:38.093Z,6.16
2022-12-25T08:47:04.865Z,6.29
2022-12-25T08:49:31.407Z,6.26
2022-12-25T08:51:58.049Z,6.29
2022-12-25T08:54:25.326Z,6.46
2022-12-25T08:56:53.334Z,6.48
2022-12-25T08:59:21.661Z,6.51
2022-12-25T09:01:48.119Z,6.51
2022-12-25T09:04:15.045Z,6.51
2022-12-25T09:06:41.517Z,6.51
2022-12-25T09:09:07.892Z,6.74
2022-12-25T09:11:34.472Z,6.85
2022-12-25T09:14:00.995Z,7.03
2022-12-25T09:16:27.774Z,6.98
2022-12-25T09:18:56.500Z,7.05
2022-12-25T09:21:23.016Z,7.07
2022-12-25T09:23:49.547Z,7.03
2022-12-25T09:26:18.334Z,7.09
2022-12-25T09:28:50.539Z,7.11
2022-12-25T09:31:18.958Z,7.07
2022-12-25T09:33:45.385Z,7.26
2022-12-25T09:36:12.209Z,7.28
2022-12-25T09:38:38.779Z,7.34
2022-12-25T09:41:47.312Z,7.29
2022-12-25T09:44:20.697Z,7.49
2022-12-25T09:46:53.169Z,7.46
2022-12-25T09:49:35.716Z,7.43
2022-12-25T09:52:11.929Z,7.73
2022-12-25T09:54:58.400Z,7.63
2022-12-25T09:57:26.235Z,7.79
2022-12-25T09:59:56.430Z,7.90
2022-12-25T10:02:45.980Z,7.98
2022-12-25T10:05:40.849Z,8.00
2022-12-25T10:08:47.441Z,7.83
2022-12-25T10:11:16.987Z,8.00
2022-12-25T10:14:02.086Z,8.01
2022-12-25T10:16:38.256Z,8.06
2022-12-25T10:19:17.768Z,8.55
2022-12-25T10:21:44.442Z,8.76
2022-12-25T10:24:35.885Z,8.61
2022-12-25T10:27:14.809Z,8.73
2022-12-25T10:29:42.638Z,9.08
2022-12-25T10:32:10.464Z,9.28
2022-12-25T10:34:40.986Z,9.23
2022-12-25T10:37:10.491Z,9.28
2022-12-25T10:39:42.337Z,9.65
2022-12-25T10:42:30.751Z,9.53
2022-12-25T10:45:03.367Z,9.54
2022-12-25T10:47:32.821Z,9.43
2022-12-25T10:50:01.185Z,9.15
2022-12-25T10:52:29.072Z,9.59
2022-12-25T10:54:56.387Z,9.33
2022-12-25T10:57:25.047Z,9.59
2022-12-25T10:59:56.908Z,9.58
2022-12-25T11:02:27.815Z,9.35
2022-12-25T11:05:07.308Z,9.78
2022-12-25T11:07:46.756Z,9.80
2022-12-25T11:10:34.601Z,9.89
2022-12-25T11:13:02.628Z,10.16
2022-12-25T11:15:43.135Z,10.84
2022-12-25T11:18:19.166Z,11.07
2022-12-25T11:20:54.044Z,11.87
2022-12-25T11:23:22.519Z,12.21
2022-12-25T11:25:56.350Z,12.84
2022-12-25T11:28:24.246Z,13.27
2022-12-25T11:30:56.549Z,12.62
2022-12-25T11:33:29.150Z,12.46
2022-12-25T11:35:58.070Z,12.73
2022-12-25T11:38:25.338Z,12.85
2022-12-25T11:40:55.242Z,13.44
2022-12-25T11:43:23.411Z,13.41
2022-12-25T11:46:08.818Z,14.10
2022-12-25T11:48:43.029Z,13.32
2022-12-25T11:51:09.969Z,13.44
2022-12-25T11:53:52.776Z,13.83
2022-12-25T11:56:23.204Z,13.66
2022-12-25T11:58:55.369Z,13.72
2022-12-25T12:01:37.144Z,14.30
2022-12-25T12:04:12.294Z,14.37
2022-12-25T12:07:00.534Z,15.52
2022-12-25T12:10:05.590Z,16.07
2022-12-25T12:13:06.087Z,14.33
2022-12-25T12:15:43.690Z,14.80
2022-12-25T12:18:21.079Z,14.97
2022-12-25T12:21:03.042Z,14.46
2022-12-25T12:23:33.071Z,13.55
2022-12-25T12:26:00.508Z,13.11
2022-12-25T12:28:37.134Z,12.47
2022-12-25T12:31:08.370Z,12.64
2022-12-25T12:33:43.820Z,12.25
2022-12-25T12:36:14.682Z,12.06
2022-12-25T12:38:43.673Z,12.06
2022-12-25T12:41:12.531Z,12.52
2022-12-25T12:43:43.128Z,13.27
2022-12-25T12:46:30.604Z,14.67
2022-12-25T12:49:17.673Z,14.33
2022-12-25T12:51:44.522Z,14.28
2022-12-25T12:54:23.348Z,13.94
2022-12-25T12:57:05.095Z,14.62
2022-12-25T12:59:43.555Z,15.79
2022-12-25T13:02:25.198Z,14.80
2022-12-25T13:05:08.134Z,16.22
2022-12-25T13:07:56.585Z,14.98
2022-12-25T13:10:33.940Z,14.82
2022-12-25T13:13:12.302Z,15.55
2022-12-25T13:15:39.428Z,14.79
2022-12-25T13:18:09.787Z,15.07
2022-12-25T13:20:55.013Z,14.41
2022-12-25T13:23:33.406Z,14.38
2022-12-25T13:26:06.128Z,15.07
2022-12-25T13:28:36.863Z,14.04
2022-12-25T13:31:06.142Z,15.08
2022-12-25T13:33:33.493Z,15.18
2022-12-25T13:36:00.032Z,15.46
2022-12-25T13:38:28.761Z,14.38
2022-12-25T13:41:15.530Z,14.48
2022-12-25T13:43:44.180Z,13.81
2022-12-25T13:46:15.711Z,13.25
2022-12-25T13:48:42.975Z,13.15
2022-12-25T13:51:16.159Z,13.04
2022-12-25T13:53:43.809Z,13.05
2022-12-25T13:56:15.591Z,13.11
2022-12-25T13:58:43.127Z,12.85
2022-12-25T14:01:11.748Z,12.93
2022-12-25T14:03:46.617Z,12.94
2022-12-25T14:06:30.304Z,12.64
2022-12-25T14:08:58.772Z,12.50
2022-12-25T14:11:28.361Z,12.52
2022-12-25T14:14:00.854Z,12.44
2022-12-25T14:16:28.316Z,12.35
2022-12-25T14:18:58.189Z,12.16
2022-12-25T14:21:38.666Z,11.99
2022-12-25T14:24:21.126Z,12.09
2022-12-25T14:26:47.693Z,11.95
2022-12-25T14:29:23.669Z,11.76
2022-12-25T14:31:53.254Z,11.64
2022-12-25T14:34:26.284Z,11.65
2022-12-25T14:36:53.356Z,11.64
2022-12-25T14:39:28.299Z,11.50
2022-12-25T14:41:54.718Z,11.38
2022-12-25T14:44:32.464Z,11.31
2022-12-25T14:47:15.596Z,11.16
2022-12-25T14:49:42.753Z,11.11
2022-12-25T14:52:18.042Z,11.02
2022-12-25T14:54:47.002Z,10.91
2022-12-25T14:57:20.223Z,10.84
2022-12-25T14:59:46.862Z,10.76
2022-12-25T15:02:19.388Z,10.70
2022-12-25T15:04:46.068Z,10.58
2022-12-25T15:07:28.797Z,10.54
2022-12-25T15:10:18.494Z,10.38
2022-12-25T15:12:41.961Z,10.20
2022-12-25T15:15:08.939Z,10.16
2022-12-25T15:17:42.115Z,10.04
2022-12-25T15:20:12.931Z,9.88
2022-12-25T15:23:10.102Z,9.80
2022-12-25T15:25:27.079Z,9.76
2022-12-25T15:27:53.647Z,9.65
2022-12-25T15:30:20.046Z,9.60
2022-12-25T15:32:46.898Z,9.55
2022-12-25T15:35:16.087Z,9.49
2022-12-25T15:37:42.654Z,9.41
2022-12-25T15:40:13.370Z,9.37
2022-12-25T15:42:41.070Z,9.31
2022-12-25T15:45:19.610Z,9.28
2022-12-25T15:47:47.642Z,9.15
2022-12-25T15:50:15.197Z,9.03
2022-12-25T15:52:42.257Z,9.00
2022-12-25T15:55:09.670Z,8.94
2022-12-25T15:57:37.882Z,8.87
2022-12-25T16:00:06.215Z,8.81
2022-12-25T16:02:32.950Z,8.75
2022-12-25T16:04:59.697Z,8.67
2022-12-25T16:07:27.562Z,8.65
2022-12-25T16:09:53.885Z,8.51
2022-12-25T16:12:20.853Z,8.48
2022-12-25T16:14:47.448Z,8.39
2022-12-25T16:17:15.419Z,8.31
2022-12-25T16:19:42.894Z,8.29
2022-12-25T16:22:14.301Z,8.19
2022-12-25T16:24:40.891Z,8.16
2022-12-25T16:27:07.464Z,8.16
2022-12-25T16:29:34.049Z,8.13
2022-12-25T16:32:00.624Z,8.16
2022-12-25T16:34:26.987Z,8.09
2022-12-25T16:36:53.576Z,8.03
2022-12-25T16:39:20.086Z,8.01
2022-12-25T16:41:46.572Z,8.04
2022-12-25T16:44:14.137Z,7.98
2022-12-25T16:46:40.972Z,7.95
2022-12-25T16:49:07.552Z,7.88
2022-12-25T16:51:34.215Z,7.91
2022-12-25T16:54:00.754Z,7.88
2022-12-25T16:56:28.660Z,7.81
2022-12-25T16:58:57.729Z,7.82
2022-12-25T17:01:25.221Z,7.75
2022-12-25T17:03:52.243Z,7.74
2022-12-25T17:06:23.325Z,7.74
2022-12-25T17:08:52.093Z,7.67
2022-12-25T17:11:23.558Z,7.63
2022-12-25T17:13:50.322Z,7.55
2022-12-25T17:16:20.156Z,7.49
2022-12-25T17:18:47.060Z,7.53
2022-12-25T17:21:14.844Z,7.44
2022-12-25T17:23:41.462Z,7.42
2022-12-25T17:26:08.054Z,7.41
2022-12-25T17:28:34.717Z,7.38
2022-12-25T17:31:09.597Z,7.31
2022-12-25T17:33:37.116Z,7.30
2022-12-25T17:36:06.364Z,7.29
2022-12-25T17:38:33.720Z,7.21
2022-12-25T17:41:02.947Z,7.18
2022-12-25T17:43:29.525Z,7.27
2022-12-25T17:45:55.867Z,7.26
2022-12-25T17:48:22.209Z,7.23
2022-12-25T17:50:48.860Z,7.18
2022-12-25T17:53:15.431Z,7.15
2022-12-25T17:55:42.342Z,7.22
2022-12-25T17:58:09.224Z,7.09
2022-12-25T18:00:37.308Z,7.13
2022-12-25T18:03:10.794Z,7.05
2022-12-25T18:05:38.235Z,7.11
2022-12-25T18:08:05.448Z,7.06
2022-12-25T18:10:37.073Z,6.90
2022-12-25T18:13:03.815Z,7.00
2022-12-25T18:15:30.296Z,6.89
2022-12-25T18:17:56.694Z,6.79
2022-12-25T18:20:23.538Z,6.62
2022-12-25T18:22:49.891Z,6.67
2022-12-25T18:25:16.256Z,6.71
2022-12-25T18:27:42.600Z,6.64
2022-12-25T18:30:10.033Z,6.55
2022-12-25T18:32:36.619Z,6.50
2022-12-25T18:35:03.359Z,6.54
2022-12-25T18:37:33.144Z,6.44
2022-12-25T18:40:04.626Z,6.34
2022-12-25T18:42:39.962Z,6.30
2022-12-25T18:45:09.059Z,6.17
2022-12-25T18:47:37.714Z,6.14
2022-12-25T18:50:05.807Z,6.17
2022-12-25T18:52:47.643Z,6.18
2022-12-25T18:55:17.672Z,6.17
2022-12-25T18:57:44.083Z,6.07
2022-12-25T19:00:10.808Z,6.06
2022-12-25T19:02:37.509Z,6.10
2022-12-25T19:05:05.587Z,6.05
2022-12-25T19:07:32.263Z,5.97
2022-12-25T19:09:58.921Z,5.96
2022-12-25T19:12:25.300Z,5.90
2022-12-25T19:14:51.769Z,5.94
2022-12-25T19:17:19.715Z,5.98
2022-12-25T19:19:46.088Z,5.97
2022-12-25T19:22:20.494Z,5.96
2022-12-25T19:24:46.871Z,5.82
2022-12-25T19:27:13.389Z,5.90
2022-12-25T19:29:41.075Z,5.82
2022-12-25T19:32:07.515Z,5.82
2022-12-25T19:34:35.703Z,5.66
2022-12-25T19:37:03.666Z,5.78
2022-12-25T19:39:29.967Z,5.85
2022-12-25T19:41:57.926Z,5.87
2022-12-25T19:44:24.586Z,5.94
2022-12-25T19:46:50.961Z,5.83
2022-12-25T19:49:17.622Z,5.95
2022-12-25T19:51:47.459Z,5.97
2022-12-25T19:54:15.804Z,5.97
2022-12-25T19:56:43.703Z,5.87
2022-12-25T19:59:12.283Z,5.96
2022-12-25T20:01:40.994Z,5.92
2022-12-25T20:04:09.520Z,5.86
2022-12-25T20:06:38.381Z,5.89
2022-12-25T20:09:15.028Z,5.94
2022-12-25T20:11:42.013Z,5.88
2022-12-25T20:14:10.217Z,5.79
2022-12-25T20:16:38.444Z,5.76
2022-12-25T20:19:07.566Z,5.73
2022-12-25T20:21:34.233Z,5.72
2022-12-25T20:24:01.208Z,5.82
2022-12-25T20:26:30.004Z,5.84
2022-12-25T20:28:57.370Z,5.81
2022-12-25T20:31:27.264Z,5.82
2022-12-25T20:34:00.009Z,5.82
2022-12-25T20:36:36.454Z,5.67
2022-12-25T20:39:05.195Z,5.65
2022-12-25T20:41:32.078Z,5.74
2022-12-25T20:44:01.865Z,5.69
2022-12-25T20:46:28.825Z,5.74
2022-12-25T20:48:55.487Z,5.76
2022-12-25T20:51:24.544Z,5.67
2022-12-25T20:53:51.403Z,5.69
2022-12-25T20:56:21.166Z,5.60
2022-12-25T20:58:49.028Z,5.68
2022-12-25T21:01:18.640Z,5.60
2022-12-25T21:03:46.632Z,5.63
2022-12-25T21:06:14.265Z,5.57
2022-12-25T21:08:41.149Z,5.58
2022-12-25T21:11:08.546Z,5.50
2022-12-25T21:13:37.867Z,5.59
2022-12-25T21:16:07.378Z,5.60
2022-12-25T21:18:33.985Z,5.58
2022-12-25T21:21:04.678Z,5.55
2022-12-25T21:23:32.073Z,5.47
2022-12-25T21:25:58.980Z,5.47
2022-12-25T21:28:30.091Z,5.39
2022-12-25T21:31:02.397Z,5.39
2022-12-25T21:33:47.767Z,5.33
2022-12-25T21:36:14.169Z,5.41
2022-12-25T21:38:41.888Z,5.44
2022-12-25T21:41:13.152Z,5.54
2022-12-25T21:43:44.784Z,5.76
2022-12-25T21:46:15.377Z,6.10
2022-12-25T21:48:42.582Z,6.22
2022-12-25T21:51:35.698Z,6.41
2022-12-25T21:54:02.755Z,6.48
2022-12-25T21:56:30.838Z,6.53
2022-12-25T21:59:02.630Z,6.70
2022-12-25T22:01:30.071Z,6.75
2022-12-25T22:04:01.657Z,6.82
2022-12-25T22:06:46.955Z,6.93
2022-12-25T22:09:13.455Z,7.04
2022-12-25T22:11:58.440Z,7.07
2022-12-25T22:14:51.102Z,7.05
2022-12-25T22:17:49.957Z,7.03
2022-12-25T22:20:21.423Z,7.10
2022-12-25T22:22:48.657Z,7.10
2022-12-25T22:25:15.576Z,7.11
2022-12-25T22:27:44.195Z,7.09
2022-12-25T22:30:34.367Z,7.07
2022-12-25T22:33:02.416Z,7.12
2022-12-25T22:35:28.783Z,7.14
2022-12-25T22:37:55.476Z,7.10
2022-12-25T22:40:21.983Z,7.13
2022-12-25T22:42:48.856Z,7.14
2022-12-25T22:45:15.727Z,7.15
2022-12-25T22:47:45.584Z,7.18
2022-12-25T22:50:14.479Z,7.19
2022-12-25T22:52:41.032Z,7.18
2022-12-25T22:55:09.832Z,7.19
2022-12-25T22:57:39.629Z,7.21
2022-12-25T23:00:08.683Z,7.19
2022-12-25T23:02:36.960Z,7.17
2022-12-25T23:05:06.271Z,7.16
2022-12-25T23:07:32.982Z,7.22
2022-12-25T23:10:01.462Z,7.25
2022-12-25T23:12:47.430Z,7.27
2022-12-25T23:15:14.127Z,7.32
2022-12-25T23:17:58.896Z,7.35
2022-12-25T23:20:44.445Z,7.34
2022-12-25T23:23:35.667Z,7.35
2022-12-25T23:26:09.207Z,7.32
2022-12-25T23:29:00.220Z,7.30
2022-12-25T23:31:35.877Z,7.23
2022-12-25T23:34:06.159Z,7.16
2022-12-25T23:36:33.155Z,7.14
2022-12-25T23:39:06.726Z,7.10
2022-12-25T23:41:35.913Z,7.11
2022-12-25T23:44:02.398Z,7.08
2022-12-25T23:46:28.990Z,7.05
2022-12-25T23:48:55.575Z,7.04
2022-12-25T23:51:22.091Z,7.03
2022-12-25T23:53:48.696Z,7.06
2022-12-25T23:56:15.345Z,7.04
2022-12-25T23:58:41.925Z,7.05
